Butts AAF (Fort Carson) Air Field
KFCS : now visible

Airfield :











YOU CAN JOIN US ON...

 
LOGIN :

Register | Disclaimer

   EN    FR    IT 

 









Legend :    VFR   Marginal VFR   IFR   Intensive IFR   Very Intensive IFR
Visi :
Ceiling :
>= 8 km
>= 3000ft
5 to 8 km
1000 to 3000 ft
1500m to 5 km
500 to 1000 ft
800 to 1500m
200 to 500 ft
< 800m
< 200 ft
Symbols :   Thunderstorms  Fog  Heavy snow  Heavy precipitations  Wind > 20 kt






- Airport Elevation : 5838 ft


KFCS - Butts AAF (Fort Carson) Air Field

CURRENT METAR :
  • 250358Z AUTO 15010KT 10SM CLR 03/M05 A2992 RMK AO2 SLP160 T00341055 $

EXPIRED METARs :
  • 250258Z AUTO 19004KT 10SM OVC170 05/M06 A2991 RMK AO2 SLP162 T00451061 52033 $
  • 250158Z AUTO 19003KT 10SM CLR 05/M06 A2989 RMK AO2 SLP160 T00531063 $

TAF TAF KFCS
Valid from the 24 at 21:00 until the 26 at 03:00 UTC


242104Z 2421/2603 24012G18KT 9999 SKC QNH2972INS
TEMPO 2421/2424 26015G25KT 520009
BECMG 2500/2501 27012G18KT 9999 SKC QNH2977INS
BECMG 2506/2507 36012G18KT 9999 SKC QNH2989INS
BECMG 2511/2512 18009KT 8000 -SN BKN030 620309 QNH3000INS TX25/2422Z TNM03/2521Z
KZDV FIR / North America



MET'MAP, your aeronautical weather chart ! - Copyright ORBIFLY December 2007 - Disclaimer

ORBIFLY MET'MAP TEAM :

Programming & Development : Alexandra Zaïnal
Concept & original design : Baudouin d'Aumeries
Assistance for programming : Marc-Olivier Méhu
Technical & hardware support : Manuel Goepfert

Contact : metmap@orbifly.com




SOURCES & CREDITS :

   NOAA       Earth
Advisory